Time;durP1;ratioP1;P1;durP2;ratioP2;P2;SDS_P1;SDS_P2;PMS_P1;PMS_P2;Temp;Humidity;BMP_temperature;BMP_pressure;BME280_temperature;BME280_humidity;BME280_pressure;Samples;Min_cycle;Max_cycle;Signal;HPM_P1;HPM_P2
2023/06/02 00:01:01;;;;;;;4.67;4.27;;;16.50;99.90;;;;;;5063453;28;20711;-86
2023/06/02 00:03:30;;;;;;;4.43;4.00;;;16.50;99.90;;;;;;5063157;28;20185;-87
2023/06/02 00:05:59;;;;;;;4.27;3.97;;;16.50;99.90;;;;;;5045492;28;20171;-85
2023/06/02 00:08:30;;;;;;;4.00;3.70;;;16.50;99.90;;;;;;5050517;28;20174;-84
2023/06/02 00:10:56;;;;;;;4.37;4.07;;;16.50;99.90;;;;;;5060864;28;20171;-85
2023/06/02 00:13:26;;;;;;;4.23;3.93;;;16.50;99.90;;;;;;5050032;28;20184;-86
2023/06/02 00:15:52;;;;;;;4.70;4.30;;;16.50;99.90;;;;;;5028969;28;20183;-85
2023/06/02 00:18:20;;;;;;;4.30;4.00;;;16.50;99.90;;;;;;5063425;28;20173;-86
2023/06/02 00:20:46;;;;;;;4.60;4.30;;;16.40;99.90;;;;;;5043382;28;20171;-86
2023/06/02 00:23:12;;;;;;;5.40;4.03;;;16.40;99.90;;;;;;5059824;28;20217;-86
2023/06/02 00:25:40;;;;;;;4.73;4.33;;;16.30;99.90;;;;;;5039895;28;20595;-85
2023/06/02 00:28:06;;;;;;;4.50;4.20;;;16.20;99.90;;;;;;5049372;28;20240;-85
2023/06/02 00:30:33;;;;;;;4.77;4.37;;;16.20;99.90;;;;;;5080528;28;20213;-86
2023/06/02 00:32:59;;;;;;;4.67;4.37;;;16.20;99.90;;;;;;5080515;28;20166;-86
2023/06/02 00:35:25;;;;;;;4.80;4.40;;;16.20;99.90;;;;;;5080467;28;20164;-86
2023/06/02 00:37:52;;;;;;;4.60;4.20;;;16.20;99.90;;;;;;5081120;28;20169;-85
2023/06/02 00:40:17;;;;;;;4.60;4.20;;;16.20;99.90;;;;;;5063850;28;20194;-86
2023/06/02 00:42:43;;;;;;;4.30;4.00;;;16.20;99.90;;;;;;5063682;28;20172;-86
2023/06/02 00:45:09;;;;;;;4.60;4.20;;;16.30;99.90;;;;;;5063712;28;20168;-86
2023/06/02 00:47:36;;;;;;;4.67;4.27;;;16.20;99.90;;;;;;5076046;28;20661;-87
2023/06/02 00:50:02;;;;;;;4.60;4.30;;;16.20;99.90;;;;;;5041946;28;20308;-86
2023/06/02 00:52:28;;;;;;;4.30;4.00;;;16.20;99.90;;;;;;5060184;28;20172;-86
2023/06/02 00:54:56;;;;;;;4.87;4.47;;;16.20;99.90;;;;;;5039557;28;20595;-85
2023/06/02 00:57:28;;;;;;;5.07;4.67;;;16.20;99.90;;;;;;5041103;28;20180;-86
2023/06/02 00:59:57;;;;;;;4.60;4.03;;;16.20;99.90;;;;;;5043661;28;20288;-84
2023/06/02 01:02:23;;;;;;;4.53;4.23;;;16.20;99.90;;;;;;5050215;28;20172;-84
2023/06/02 01:04:51;;;;;;;4.60;4.10;;;16.20;99.90;;;;;;5066956;28;20180;-85
2023/06/02 01:07:23;;;;;;;4.53;4.13;;;16.10;99.90;;;;;;5060347;28;20173;-86
2023/06/02 01:09:52;;;;;;;5.83;4.37;;;16.10;99.90;;;;;;5038984;28;20220;-86
2023/06/02 01:12:19;;;;;;;5.00;4.53;;;16.10;99.90;;;;;;5048371;28;20173;-85
2023/06/02 01:14:45;;;;;;;4.07;3.77;;;16.10;99.90;;;;;;5062198;28;20546;-85
2023/06/02 01:17:11;;;;;;;6.00;4.97;;;16.10;99.90;;;;;;5054370;28;20230;-85
2023/06/02 01:19:38;;;;;;;4.70;4.37;;;16.00;99.90;;;;;;5035576;28;20201;-86
2023/06/02 01:22:05;;;;;;;4.70;4.30;;;16.00;99.90;;;;;;5036155;28;20175;-85
2023/06/02 01:24:39;;;;;;;5.07;4.57;;;16.00;99.90;;;;;;5054872;28;20655;-84
2023/06/02 01:27:11;;;;;;;4.53;4.23;;;15.90;99.90;;;;;;5054857;28;20201;-87
2023/06/02 01:29:38;;;;;;;5.77;4.23;;;15.90;99.90;;;;;;5036983;28;20216;-84
2023/06/02 01:32:10;;;;;;;4.37;4.07;;;15.90;99.90;;;;;;5071145;28;20203;-85
2023/06/02 01:34:52;;;;;;;5.10;4.70;;;15.80;99.90;;;;;;5035781;28;20543;-86
2023/06/02 01:37:20;;;;;;;4.53;4.13;;;15.80;99.90;;;;;;5054872;28;20247;-85
2023/06/02 01:39:48;;;;;;;5.87;4.80;;;15.80;99.90;;;;;;5054618;28;20183;-85
2023/06/02 01:42:15;;;;;;;5.67;4.47;;;15.80;99.90;;;;;;5055153;28;20689;-86
2023/06/02 01:44:43;;;;;;;5.00;4.60;;;15.80;99.90;;;;;;5036756;28;20659;-88
2023/06/02 01:47:12;;;;;;;6.00;4.83;;;15.80;99.90;;;;;;5037617;28;20214;-85
2023/06/02 01:49:38;;;;;;;5.33;4.93;;;15.80;99.90;;;;;;5036540;28;20227;-85
2023/06/02 01:52:04;;;;;;;5.50;4.97;;;15.80;99.90;;;;;;5055201;28;20173;-85
2023/06/02 01:54:30;;;;;;;5.20;4.70;;;15.80;99.90;;;;;;5045111;28;20195;-85
2023/06/02 01:56:55;;;;;;;5.17;4.70;;;15.70;99.90;;;;;;5077301;28;20192;-85
2023/06/02 01:59:22;;;;;;;5.13;4.13;;;15.70;99.90;;;;;;5037588;28;20198;-86
2023/06/02 02:01:48;;;;;;;4.67;4.30;;;15.60;99.90;;;;;;5055353;28;20172;-86
2023/06/02 02:04:13;;;;;;;4.60;4.20;;;15.60;99.90;;;;;;5066591;28;20184;-85
2023/06/02 02:06:40;;;;;;;5.10;4.70;;;15.60;99.90;;;;;;5064842;28;20192;-85
2023/06/02 02:09:07;;;;;;;5.50;5.07;;;15.60;99.90;;;;;;5054185;28;20204;-85
2023/06/02 02:11:34;;;;;;;4.73;4.23;;;15.60;99.90;;;;;;5037691;28;20175;-86
2023/06/02 02:14:04;;;;;;;5.83;5.27;;;15.60;99.90;;;;;;5054789;28;20172;-85
2023/06/02 02:16:30;;;;;;;5.50;5.00;;;15.60;99.90;;;;;;5035965;28;20587;-86
2023/06/02 02:18:58;;;;;;;5.10;4.60;;;15.70;99.90;;;;;;5053883;28;20165;-87
2023/06/02 02:21:25;;;;;;;5.70;5.20;;;15.60;99.90;;;;;;5053767;28;20171;-84
2023/06/02 02:23:51;;;;;;;7.80;5.20;;;15.60;99.90;;;;;;5056383;28;20184;-85
2023/06/02 02:26:18;;;;;;;5.10;4.70;;;15.70;99.90;;;;;;5054827;28;20176;-86
2023/06/02 02:28:44;;;;;;;7.83;5.33;;;15.60;99.90;;;;;;5037529;28;20695;-86
2023/06/02 02:31:11;;;;;;;5.00;4.60;;;15.60;99.90;;;;;;5037735;28;20187;-85
2023/06/02 02:33:37;;;;;;;5.03;4.60;;;15.60;99.90;;;;;;5036269;28;20259;-85
2023/06/02 02:36:03;;;;;;;5.57;5.07;;;15.60;99.90;;;;;;5035961;28;20268;-84
2023/06/02 02:38:28;;;;;;;5.97;4.80;;;15.60;99.90;;;;;;5075499;28;20172;-85
2023/06/02 02:40:54;;;;;;;5.37;4.70;;;15.60;99.90;;;;;;5039025;28;20184;-86
2023/06/02 02:43:21;;;;;;;6.67;4.97;;;15.60;99.90;;;;;;5036104;28;20199;-85
2023/06/02 02:45:47;;;;;;;5.80;5.30;;;15.60;99.90;;;;;;5053927;28;20678;-85
2023/06/02 02:48:13;;;;;;;7.00;5.10;;;16.60;99.90;;;;;;5047544;28;20243;-85
2023/06/02 02:50:39;;;;;;;5.43;4.93;;;15.50;99.90;;;;;;5045169;28;20208;-84
2023/06/02 02:53:05;;;;;;;5.57;5.07;;;15.50;99.90;;;;;;5043676;28;20168;-86
2023/06/02 02:55:32;;;;;;;6.30;5.33;;;15.50;99.90;;;;;;5044206;28;20187;-87
2023/06/02 02:58:01;;;;;;;5.37;4.87;;;15.50;99.90;;;;;;5037008;28;20182;-86
2023/06/02 03:00:27;;;;;;;5.60;5.10;;;15.50;99.90;;;;;;5035835;28;20183;-85
2023/06/02 03:02:56;;;;;;;5.13;4.63;;;15.50;99.90;;;;;;5035365;28;20183;-86
2023/06/02 03:05:22;;;;;;;6.43;5.20;;;15.50;99.90;;;;;;5035377;28;20706;-85
2023/06/02 03:07:49;;;;;;;5.53;5.03;;;15.40;99.90;;;;;;5035227;28;20175;-85
2023/06/02 03:10:15;;;;;;;6.50;5.23;;;15.40;99.90;;;;;;5053495;28;20202;-85
2023/06/02 03:12:41;;;;;;;5.73;4.87;;;15.50;99.90;;;;;;5035434;28;20180;-87
2023/06/02 03:15:07;;;;;;;5.63;5.07;;;15.60;99.90;;;;;;5035273;28;20195;-87
2023/06/02 03:17:34;;;;;;;5.13;4.73;;;15.60;99.90;;;;;;5035376;28;20276;-86
2023/06/02 03:20:00;;;;;;;5.70;5.20;;;15.70;99.90;;;;;;5035262;28;20582;-85
2023/06/02 03:22:28;;;;;;;5.90;5.00;;;15.70;99.90;;;;;;5035086;28;20180;-85
2023/06/02 03:24:54;;;;;;;6.57;5.70;;;15.70;99.90;;;;;;5054419;28;20182;-85
2023/06/02 03:27:20;;;;;;;6.87;5.17;;;15.70;99.90;;;;;;5053521;28;20260;-87
2023/06/02 03:29:46;;;;;;;6.30;5.70;;;15.70;99.90;;;;;;5034568;28;20211;-86
2023/06/02 03:32:12;;;;;;;12.17;6.03;;;15.70;99.90;;;;;;5055314;28;20183;-86
2023/06/02 03:34:39;;;;;;;6.90;6.20;;;15.60;99.90;;;;;;5054075;28;20172;-86
2023/06/02 03:37:08;;;;;;;7.33;6.17;;;15.60;99.90;;;;;;5034897;28;20587;-87
2023/06/02 03:39:34;;;;;;;7.07;5.80;;;15.70;99.90;;;;;;5052661;28;20640;-86
2023/06/02 03:42:00;;;;;;;6.73;6.10;;;15.60;99.90;;;;;;5052494;28;20176;-85
2023/06/02 03:44:25;;;;;;;7.97;6.60;;;15.60;99.90;;;;;;5052364;28;20177;-85
2023/06/02 03:46:51;;;;;;;6.50;5.90;;;15.60;99.90;;;;;;5038818;28;20172;-85
2023/06/02 03:49:17;;;;;;;7.90;6.53;;;15.60;99.90;;;;;;5052331;28;20231;-85
2023/06/02 03:51:43;;;;;;;6.57;5.67;;;15.50;99.90;;;;;;5053198;28;20176;-85
2023/06/02 03:54:09;;;;;;;5.93;5.43;;;15.70;99.90;;;;;;5058337;28;20215;-86
2023/06/02 03:56:35;;;;;;;7.40;5.60;;;15.80;99.90;;;;;;5043489;28;20185;-85
2023/06/02 03:59:01;;;;;;;6.27;5.47;;;15.80;99.90;;;;;;5076746;28;20181;-85
2023/06/02 04:01:27;;;;;;;6.47;5.67;;;15.80;99.90;;;;;;5046535;28;20180;-85
2023/06/02 04:03:53;;;;;;;7.03;5.83;;;15.80;99.90;;;;;;5040147;28;20178;-85
2023/06/02 04:06:19;;;;;;;8.33;5.60;;;15.90;99.90;;;;;;5041405;28;20176;-85
2023/06/02 04:08:48;;;;;;;8.73;6.20;;;15.80;99.90;;;;;;5038844;28;20203;-85
2023/06/02 04:11:14;;;;;;;7.70;5.90;;;15.90;99.90;;;;;;5038619;28;20262;-84
2023/06/02 04:13:40;;;;;;;6.27;5.67;;;15.90;99.90;;;;;;5044851;28;20214;-84
2023/06/02 04:16:07;;;;;;;8.37;5.53;;;15.90;99.90;;;;;;5071838;28;20243;-83
2023/06/02 04:18:37;;;;;;;9.67;6.00;;;15.90;99.90;;;;;;5042885;28;20168;-85
2023/06/02 04:21:03;;;;;;;7.53;6.20;;;15.90;99.90;;;;;;5057057;28;20269;-86
2023/06/02 04:23:28;;;;;;;6.87;5.93;;;16.00;99.90;;;;;;5057274;28;20177;-85
2023/06/02 04:25:54;;;;;;;8.40;5.97;;;16.10;99.90;;;;;;5054537;28;20258;-85
2023/06/02 04:28:20;;;;;;;8.17;6.20;;;16.10;99.90;;;;;;5067355;28;20555;-85
2023/06/02 04:30:48;;;;;;;6.57;5.70;;;16.20;99.90;;;;;;5038610;28;20219;-87
2023/06/02 04:33:14;;;;;;;8.23;5.60;;;16.20;99.90;;;;;;5038197;28;20201;-86
2023/06/02 04:35:40;;;;;;;7.13;5.90;;;16.20;99.90;;;;;;5056435;28;20589;-84
2023/06/02 04:38:07;;;;;;;6.50;5.90;;;16.20;99.90;;;;;;5038029;28;20654;-86
2023/06/02 04:40:33;;;;;;;8.77;5.97;;;16.30;99.90;;;;;;5056774;28;20173;-86
2023/06/02 04:42:59;;;;;;;6.77;5.97;;;16.40;99.90;;;;;;5038840;28;20188;-85
2023/06/02 04:45:25;;;;;;;8.47;6.17;;;16.40;99.90;;;;;;5060196;28;20180;-85
2023/06/02 04:47:50;;;;;;;6.50;5.83;;;16.50;99.90;;;;;;5057562;28;20181;-85
2023/06/02 04:50:16;;;;;;;7.30;6.53;;;16.50;99.90;;;;;;5037946;28;20214;-85
2023/06/02 04:52:43;;;;;;;6.70;5.97;;;16.50;99.90;;;;;;5055656;28;20172;-86
2023/06/02 04:55:11;;;;;;;6.63;5.93;;;16.50;99.90;;;;;;5055456;28;20181;-87
2023/06/02 04:57:37;;;;;;;8.67;6.53;;;16.50;99.90;;;;;;5054459;28;20309;-86
2023/06/02 05:00:05;;;;;;;9.50;6.33;;;16.60;99.90;;;;;;5035781;28;20251;-85
2023/06/02 05:02:31;;;;;;;10.53;6.97;;;16.60;99.90;;;;;;5054556;28;20248;-86
2023/06/02 05:04:57;;;;;;;7.33;6.03;;;16.60;99.90;;;;;;5037412;28;20183;-85
2023/06/02 05:07:23;;;;;;;7.60;6.13;;;16.70;99.90;;;;;;5055399;28;20257;-86
2023/06/02 05:09:49;;;;;;;7.73;6.47;;;16.80;99.90;;;;;;5037482;28;20223;-86
2023/06/02 05:12:18;;;;;;;9.53;6.30;;;16.80;99.90;;;;;;5057852;28;20183;-86
2023/06/02 05:14:44;;;;;;;6.77;6.13;;;16.90;99.90;;;;;;5057633;28;20176;-85
2023/06/02 05:17:10;;;;;;;7.67;6.40;;;17.00;99.90;;;;;;5075486;28;20238;-86
2023/06/02 05:19:39;;;;;;;7.70;5.97;;;17.00;99.90;;;;;;5044749;28;20618;-87
2023/06/02 05:22:05;;;;;;;6.90;6.00;;;17.10;99.90;;;;;;5059791;28;20172;-87
2023/06/02 05:24:31;;;;;;;8.10;6.10;;;17.20;99.90;;;;;;5057318;28;20180;-86
2023/06/02 05:26:56;;;;;;;7.27;6.07;;;17.20;99.90;;;;;;5038468;28;20191;-86
2023/06/02 05:29:22;;;;;;;8.37;6.20;;;17.30;99.90;;;;;;5056935;28;20212;-87
2023/06/02 05:31:48;;;;;;;8.57;6.50;;;17.30;99.90;;;;;;5037755;28;20184;-86
2023/06/02 05:34:14;;;;;;;6.70;6.00;;;17.40;99.90;;;;;;5056261;28;20180;-86
2023/06/02 05:36:40;;;;;;;6.33;5.73;;;17.50;99.90;;;;;;5055907;28;20179;-85
2023/06/02 05:39:05;;;;;;;6.27;5.67;;;17.70;99.90;;;;;;5049102;28;20183;-85
2023/06/02 05:41:32;;;;;;;7.10;6.40;;;17.80;99.90;;;;;;5056662;28;20198;-87
2023/06/02 05:43:58;;;;;;;7.83;6.43;;;17.90;99.90;;;;;;5035813;28;20242;-86
2023/06/02 05:46:23;;;;;;;6.87;6.17;;;18.00;99.90;;;;;;5054606;28;20176;-85
2023/06/02 05:48:49;;;;;;;8.50;6.17;;;18.00;99.90;;;;;;5060047;28;20254;-85
2023/06/02 05:51:15;;;;;;;7.93;5.93;;;18.10;99.90;;;;;;5048942;28;20604;-84
2023/06/02 05:53:41;;;;;;;7.63;6.37;;;18.20;99.90;;;;;;5065528;28;20179;-85
2023/06/02 05:56:07;;;;;;;8.07;5.70;;;18.20;99.90;;;;;;5045771;28;20187;-85
2023/06/02 05:58:38;;;;;;;6.23;5.40;;;18.30;99.90;;;;;;5062081;28;20187;-87
2023/06/02 06:01:04;;;;;;;6.20;5.60;;;18.40;99.90;;;;;;5070573;28;20184;-85
2023/06/02 06:03:29;;;;;;;10.20;5.90;;;18.40;99.90;;;;;;5075078;28;20176;-84
2023/06/02 06:05:55;;;;;;;6.97;5.70;;;18.40;99.90;;;;;;5039478;28;20175;-84
2023/06/02 06:08:21;;;;;;;8.17;6.53;;;18.50;99.90;;;;;;5054015;28;20172;-82
2023/06/02 06:10:46;;;;;;;7.20;6.13;;;18.60;99.90;;;;;;5054066;28;20211;-81
2023/06/02 06:13:12;;;;;;;6.53;5.87;;;18.60;99.90;;;;;;5053649;28;20179;-80
2023/06/02 06:15:38;;;;;;;8.43;6.10;;;18.60;99.90;;;;;;5053368;28;20256;-79
2023/06/02 06:18:04;;;;;;;7.17;6.30;;;18.70;99.90;;;;;;5054061;28;20168;-80
2023/06/02 06:20:30;;;;;;;8.77;6.43;;;18.70;99.90;;;;;;5052985;28;20178;-80
2023/06/02 06:22:56;;;;;;;6.43;5.73;;;18.70;99.90;;;;;;5054772;28;20180;-81
2023/06/02 06:25:22;;;;;;;8.30;6.50;;;18.70;99.90;;;;;;5054827;28;20601;-77
2023/06/02 06:27:47;;;;;;;7.93;6.57;;;18.70;99.90;;;;;;5053743;28;20227;-79
2023/06/02 06:30:13;;;;;;;7.97;6.70;;;18.70;99.90;;;;;;5053619;28;20211;-79
2023/06/02 06:32:39;;;;;;;9.97;7.03;;;20.60;99.90;;;;;;5054122;28;20673;-80
2023/06/02 06:35:05;;;;;;;6.77;5.33;;;19.00;99.90;;;;;;5054190;28;20215;-80
2023/06/02 06:37:31;;;;;;;5.63;5.13;;;19.10;99.90;;;;;;5052672;28;20168;-80
2023/06/02 06:39:57;;;;;;;6.83;6.17;;;19.20;99.90;;;;;;5035023;28;20593;-80
2023/06/02 06:42:23;;;;;;;6.67;6.00;;;19.30;99.90;;;;;;5054406;28;20313;-80
2023/06/02 06:44:50;;;;;;;7.67;6.43;;;19.40;99.90;;;;;;5053623;28;20514;-81
2023/06/02 06:47:16;;;;;;;10.27;6.63;;;19.40;99.90;;;;;;5053625;28;20183;-79
2023/06/02 06:49:42;;;;;;;6.87;5.27;;;19.50;99.90;;;;;;5052843;28;20284;-82
2023/06/02 06:52:08;;;;;;;7.40;5.87;;;19.60;99.90;;;;;;5052742;28;20243;-80
2023/06/02 06:54:33;;;;;;;8.77;5.80;;;19.70;99.90;;;;;;5052455;28;20651;-81
2023/06/02 06:56:59;;;;;;;6.27;5.60;;;19.80;99.90;;;;;;5052833;28;20211;-82
2023/06/02 06:59:25;;;;;;;6.90;5.77;;;19.80;99.90;;;;;;5055019;28;20183;-80
2023/06/02 07:01:51;;;;;;;6.47;5.90;;;19.80;99.90;;;;;;5054170;28;20178;-81
2023/06/02 07:04:17;;;;;;;6.43;5.70;;;19.90;99.90;;;;;;5052561;28;20199;-80
2023/06/02 07:06:43;;;;;;;7.23;5.80;;;20.10;99.90;;;;;;5052425;28;20172;-80
2023/06/02 07:09:10;;;;;;;6.03;5.47;;;20.20;99.90;;;;;;5052194;28;20597;-81
2023/06/02 07:11:36;;;;;;;8.17;5.57;;;20.40;99.90;;;;;;5051916;28;20258;-80
2023/06/02 07:14:02;;;;;;;7.33;6.07;;;20.50;99.90;;;;;;5052621;28;20578;-80
2023/06/02 07:16:27;;;;;;;5.17;4.77;;;20.60;99.60;;;;;;5052323;28;20263;-81
2023/06/02 07:18:53;;;;;;;6.57;5.53;;;20.70;98.90;;;;;;5052149;28;20263;-81
2023/06/02 07:21:19;;;;;;;5.77;5.27;;;20.80;98.00;;;;;;5051946;28;20263;-81
2023/06/02 07:23:45;;;;;;;7.43;5.47;;;20.90;98.40;;;;;;5054326;28;20175;-81
2023/06/02 07:26:11;;;;;;;5.90;5.30;;;21.20;99.40;;;;;;5076239;28;20168;-83
2023/06/02 07:28:38;;;;;;;6.87;6.20;;;21.20;98.30;;;;;;5059025;28;20199;-82
2023/06/02 07:31:04;;;;;;;6.00;5.50;;;21.20;98.30;;;;;;5077222;28;20167;-83
2023/06/02 07:33:30;;;;;;;5.40;4.90;;;21.40;98.50;;;;;;5080576;28;20186;-81
2023/06/02 07:35:56;;;;;;;6.80;5.60;;;21.50;98.10;;;;;;5081637;28;20168;-80
2023/06/02 07:38:22;;;;;;;5.77;4.90;;;21.60;98.30;;;;;;5077579;28;20188;-83
2023/06/02 07:40:47;;;;;;;6.00;5.40;;;21.70;97.60;;;;;;5060782;28;20180;-82
2023/06/02 07:43:13;;;;;;;5.83;5.30;;;21.70;97.90;;;;;;5061202;28;20210;-82
2023/06/02 07:45:39;;;;;;;5.90;5.37;;;21.80;97.80;;;;;;5059160;28;20679;-81
2023/06/02 07:48:04;;;;;;;6.10;5.10;;;21.90;96.10;;;;;;5058036;28;20214;-80
2023/06/02 07:50:30;;;;;;;5.27;4.87;;;21.90;96.30;;;;;;5059085;28;20208;-81
2023/06/02 07:52:57;;;;;;;5.00;4.60;;;22.20;96.40;;;;;;5056984;28;20167;-81
2023/06/02 07:55:24;;;;;;;5.73;5.23;;;22.20;96.60;;;;;;5056350;28;20195;-81
2023/06/02 07:57:51;;;;;;;5.67;5.20;;;22.30;96.60;;;;;;5056296;28;20164;-80
2023/06/02 08:00:18;;;;;;;7.13;5.07;;;22.40;96.30;;;;;;5056365;28;20187;-81
2023/06/02 08:02:46;;;;;;;5.60;4.53;;;22.40;95.90;;;;;;5059036;28;20255;-80
2023/06/02 08:05:13;;;;;;;5.83;5.00;;;22.60;96.10;;;;;;5061022;28;20198;-79
2023/06/02 08:07:40;;;;;;;11.23;6.30;;;22.60;95.90;;;;;;5059612;28;20289;-82
2023/06/02 08:10:06;;;;;;;5.60;5.10;;;22.70;95.60;;;;;;5057546;28;20238;-83
2023/06/02 08:12:32;;;;;;;5.67;5.17;;;22.70;95.30;;;;;;5055529;28;20206;-81
2023/06/02 08:14:58;;;;;;;4.97;4.50;;;22.80;95.50;;;;;;5055378;28;20579;-79
2023/06/02 08:17:29;;;;;;;4.88;4.47;;;22.80;95.10;;;;;;5055089;28;20172;-81
2023/06/02 08:19:56;;;;;;;5.22;4.75;;;22.90;95.20;;;;;;5055002;28;20579;-83
2023/06/02 08:22:22;;;;;;;4.53;4.23;;;23.10;94.40;;;;;;5056442;28;20180;-79
2023/06/02 08:24:48;;;;;;;4.77;4.23;;;23.30;94.20;;;;;;5059439;28;20179;-80
2023/06/02 08:27:14;;;;;;;4.68;4.28;;;23.40;94.30;;;;;;5056266;28;20254;-82
2023/06/02 08:29:40;;;;;;;5.13;4.63;;;23.60;93.40;;;;;;5054691;28;20667;-81
2023/06/02 08:32:06;;;;;;;6.78;4.57;;;23.70;93.90;;;;;;5054892;28;20176;-82
2023/06/02 08:34:32;;;;;;;4.97;4.57;;;24.00;93.50;;;;;;5055177;28;20620;-80
2023/06/02 08:37:00;;;;;;;6.80;5.00;;;24.00;93.20;;;;;;5055728;28;20604;-80
2023/06/02 08:39:28;;;;;;;4.47;4.15;;;24.10;93.10;;;;;;5037548;28;20902;-80
2023/06/02 08:42:01;;;;;;;4.80;4.40;;;24.10;93.40;;;;;;5054838;28;20186;-82
2023/06/02 08:44:28;;;;;;;5.25;4.75;;;24.10;92.30;;;;;;5036508;28;20497;-80
2023/06/02 08:46:55;;;;;;;4.35;3.95;;;24.20;92.40;;;;;;5037075;28;20180;-80
2023/06/02 08:49:22;;;;;;;4.10;3.80;;;24.20;91.90;;;;;;5054184;28;20234;-81
2023/06/02 08:52:00;;;;;;;4.90;4.50;;;24.40;92.30;;;;;;5054331;28;20203;-80
2023/06/02 08:54:29;;;;;;;4.75;4.35;;;24.50;92.20;;;;;;5055143;28;20164;-81
2023/06/02 08:56:59;;;;;;;4.40;4.10;;;24.40;92.00;;;;;;5037296;28;20171;-80
2023/06/02 08:59:29;;;;;;;5.82;4.22;;;24.40;92.60;;;;;;5055824;28;20164;-81
2023/06/02 09:02:00;;;;;;;4.30;4.00;;;24.60;92.30;;;;;;5055104;28;20171;-79
2023/06/02 09:04:28;;;;;;;4.40;3.92;;;24.60;91.90;;;;;;5055265;28;20167;-80
2023/06/02 09:07:12;;;;;;;4.72;4.22;;;24.70;91.20;;;;;;5057327;28;20174;-80
2023/06/02 09:09:42;;;;;;;5.30;4.38;;;24.70;90.70;;;;;;5054996;28;20253;-82
2023/06/02 09:12:08;;;;;;;4.53;4.20;;;24.80;91.30;;;;;;5055880;28;20176;-80
2023/06/02 09:14:39;;;;;;;4.38;4.07;;;24.70;91.10;;;;;;5054838;28;20534;-81
2023/06/02 09:17:33;;;;;;;5.45;4.95;;;24.80;91.20;;;;;;5068614;28;20174;-81
2023/06/02 09:20:07;;;;;;;4.40;4.03;;;24.80;91.10;;;;;;5036785;28;20180;-80
2023/06/02 09:22:33;;;;;;;4.35;3.95;;;24.70;91.00;;;;;;5053906;28;21025;-80
2023/06/02 09:24:59;;;;;;;4.40;4.00;;;24.50;90.70;;;;;;5055152;28;20228;-81
2023/06/02 09:27:25;;;;;;;6.45;4.38;;;24.60;91.10;;;;;;5054723;28;20203;-80
2023/06/02 09:30:02;;;;;;;5.00;4.50;;;24.60;91.00;;;;;;5054424;28;20203;-80
2023/06/02 09:32:28;;;;;;;6.22;4.47;;;24.60;91.20;;;;;;5054047;28;20156;-81
2023/06/02 09:34:54;;;;;;;5.40;4.85;;;24.70;91.50;;;;;;5053872;28;20674;-80
2023/06/02 09:37:21;;;;;;;5.22;4.72;;;24.80;91.60;;;;;;5036428;28;20584;-81
2023/06/02 09:39:49;;;;;;;4.43;4.03;;;24.70;90.80;;;;;;5054575;28;20204;-83
2023/06/02 09:42:17;;;;;;;4.57;4.18;;;24.70;90.20;;;;;;5054547;28;20176;-80
2023/06/02 09:45:06;;;;;;;5.45;4.93;;;24.50;89.10;;;;;;5054444;28;20171;-80
2023/06/02 09:47:43;;;;;;;4.90;4.50;;;24.70;91.20;;;;;;5063225;28;20152;-80
2023/06/02 09:50:13;;;;;;;4.65;4.30;;;24.70;91.70;;;;;;5054474;28;20227;-79
2023/06/02 09:52:39;;;;;;;6.45;4.68;;;24.70;92.10;;;;;;5053926;28;20187;-78
2023/06/02 09:55:07;;;;;;;5.10;4.63;;;24.70;92.20;;;;;;5052967;28;20172;-79
2023/06/02 09:57:34;;;;;;;5.10;4.60;;;24.70;91.90;;;;;;5053152;28;20250;-80
2023/06/02 09:59:59;;;;;;;4.75;4.28;;;24.70;92.10;;;;;;5053058;28;20180;-79
2023/06/02 10:02:26;;;;;;;4.68;4.28;;;24.70;92.30;;;;;;5053332;28;20184;-80
2023/06/02 10:04:51;;;;;;;4.40;4.10;;;24.70;92.50;;;;;;5053395;28;20164;-81
2023/06/02 10:07:48;;;;;;;4.07;3.78;;;24.80;92.70;;;;;;5053569;28;20176;-80
2023/06/02 10:10:42;;;;;;;4.00;3.70;;;24.80;91.30;;;;;;5056735;28;20200;-79
2023/06/02 10:13:35;;;;;;;3.20;3.00;;;24.60;89.40;;;;;;5060909;28;20168;-80
2023/06/02 10:16:25;;;;;;;3.40;3.20;;;24.40;86.40;;;;;;5054109;28;20235;-80
2023/06/02 10:19:10;;;;;;;4.18;3.00;;;24.30;85.90;;;;;;5053375;28;20612;-81
2023/06/02 10:22:07;;;;;;;3.20;3.00;;;24.20;82.20;;;;;;5053506;28;20171;-79
2023/06/02 10:25:11;;;;;;;2.85;2.65;;;23.90;82.80;;;;;;5036387;28;20544;-79
2023/06/02 10:27:39;;;;;;;3.20;3.00;;;23.90;84.00;;;;;;5053277;28;20160;-80
2023/06/02 10:30:06;;;;;;;3.47;2.90;;;24.00;84.80;;;;;;5055010;28;20285;-81
2023/06/02 10:32:44;;;;;;;4.10;3.03;;;24.10;85.10;;;;;;5055162;28;20221;-80
2023/06/02 10:35:10;;;;;;;3.55;3.22;;;24.20;85.20;;;;;;5053128;28;20159;-81
2023/06/02 10:37:37;;;;;;;3.53;3.22;;;24.20;85.30;;;;;;5053110;28;20179;-79
2023/06/02 10:40:04;;;;;;;3.65;3.42;;;24.20;86.00;;;;;;5053043;28;20172;-79
2023/06/02 10:42:31;;;;;;;3.30;3.10;;;24.20;86.30;;;;;;5061239;28;20190;-79
2023/06/02 10:45:18;;;;;;;3.65;3.35;;;24.20;87.30;;;;;;5057637;28;20221;-80
2023/06/02 10:47:46;;;;;;;3.90;3.42;;;24.00;87.60;;;;;;5053254;28;20167;-80
2023/06/02 10:50:14;;;;;;;4.10;3.70;;;23.90;89.00;;;;;;5052531;28;20337;-78
2023/06/02 10:53:04;;;;;;;3.65;3.35;;;23.70;89.50;;;;;;5054993;28;20192;-79
2023/06/02 10:55:30;;;;;;;6.20;3.80;;;23.60;89.80;;;;;;5063109;28;20167;-80
2023/06/02 10:58:01;;;;;;;5.50;3.70;;;23.30;90.20;;;;;;5037190;28;20297;-80
2023/06/02 11:00:30;;;;;;;3.75;3.47;;;23.10;90.40;;;;;;5052365;28;20226;-80
2023/06/02 11:02:56;;;;;;;3.95;3.55;;;23.00;90.40;;;;;;5035121;28;20693;-82
2023/06/02 11:05:24;;;;;;;3.83;3.53;;;22.80;90.80;;;;;;5052951;28;20217;-81
2023/06/02 11:08:12;;;;;;;3.95;3.55;;;22.70;90.90;;;;;;5054248;28;20176;-81
2023/06/02 11:10:58;;;;;;;3.50;3.30;;;22.50;91.00;;;;;;5040870;28;20265;-80
2023/06/02 11:13:25;;;;;;;3.50;3.30;;;22.40;91.00;;;;;;5054819;28;20174;-81
2023/06/02 11:15:58;;;;;;;3.90;3.60;;;22.40;91.20;;;;;;5053369;28;20195;-81
2023/06/02 11:18:32;;;;;;;4.60;3.40;;;22.30;91.00;;;;;;5052188;28;20175;-79
2023/06/02 11:21:03;;;;;;;4.00;3.60;;;22.30;90.50;;;;;;5052329;28;20673;-79
2023/06/02 11:23:29;;;;;;;4.55;3.40;;;22.30;90.60;;;;;;5052393;28;20167;-79
2023/06/02 11:26:01;;;;;;;3.83;3.40;;;22.20;90.70;;;;;;5052120;28;20202;-80
2023/06/02 11:28:28;;;;;;;3.30;3.00;;;22.20;90.40;;;;;;5052373;28;20172;-80
2023/06/02 11:31:07;;;;;;;3.47;3.17;;;22.20;90.20;;;;;;5051776;28;20313;-81
2023/06/02 11:33:34;;;;;;;3.63;3.33;;;22.20;90.70;;;;;;5053327;28;20229;-81
2023/06/02 11:36:01;;;;;;;3.30;3.10;;;22.20;90.90;;;;;;5052452;28;20164;-79
2023/06/02 11:38:32;;;;;;;3.80;3.43;;;22.00;91.00;;;;;;5051994;28;20183;-80
2023/06/02 11:41:31;;;;;;;3.50;3.27;;;21.90;91.30;;;;;;5052163;28;20213;-79
2023/06/02 11:44:09;;;;;;;3.40;3.20;;;21.80;91.70;;;;;;5020413;28;20278;-80
2023/06/02 11:46:36;;;;;;;3.73;3.43;;;21.70;91.70;;;;;;5053293;28;20172;-81
2023/06/02 11:49:04;;;;;;;3.67;3.47;;;21.70;91.80;;;;;;5030648;28;20362;-81
2023/06/02 11:51:30;;;;;;;3.57;3.27;;;21.70;91.80;;;;;;5032257;28;20172;-80
2023/06/02 11:54:02;;;;;;;3.73;3.50;;;21.70;91.60;;;;;;5032173;28;20513;-82
2023/06/02 11:56:29;;;;;;;4.00;3.10;;;21.80;91.30;;;;;;5032166;28;20180;-84
2023/06/02 11:58:57;;;;;;;4.13;3.63;;;22.00;91.50;;;;;;5032404;28;20532;-82
2023/06/02 12:01:26;;;;;;;4.57;4.13;;;22.10;91.80;;;;;;5032648;28;20173;-81
2023/06/02 12:04:04;;;;;;;4.17;3.60;;;22.30;91.50;;;;;;5032455;28;20187;-79
2023/06/02 12:06:32;;;;;;;3.87;3.60;;;22.50;91.50;;;;;;5032469;28;20627;-79
2023/06/02 12:09:11;;;;;;;3.43;3.23;;;22.70;92.00;;;;;;5032217;28;20188;-81
2023/06/02 12:11:37;;;;;;;3.60;3.30;;;22.80;91.70;;;;;;5031514;28;20184;-80
2023/06/02 12:14:04;;;;;;;3.50;3.20;;;23.00;91.00;;;;;;5034795;28;20226;-81
2023/06/02 12:16:31;;;;;;;3.37;3.17;;;23.10;90.90;;;;;;5032933;28;20171;-81
2023/06/02 12:19:11;;;;;;;3.17;2.97;;;23.20;91.30;;;;;;5035183;28;20173;-80
2023/06/02 12:21:40;;;;;;;3.10;3.00;;;23.30;90.60;;;;;;5039037;28;20177;-80
2023/06/02 12:24:07;;;;;;;3.30;3.10;;;23.50;90.20;;;;;;5036145;28;20524;-80
2023/06/02 12:26:44;;;;;;;3.35;3.10;;;23.60;89.00;;;;;;5035494;28;20179;-79
2023/06/02 12:29:10;;;;;;;3.00;2.80;;;23.80;88.20;;;;;;5037249;28;20242;-81
2023/06/02 12:31:37;;;;;;;3.20;3.00;;;23.90;87.00;;;;;;5045598;28;20176;-80
2023/06/02 12:34:06;;;;;;;4.05;3.60;;;24.00;86.60;;;;;;5036031;28;20173;-79
2023/06/02 12:36:32;;;;;;;3.22;3.03;;;24.10;87.60;;;;;;5034931;28;20177;-80
2023/06/02 12:39:00;;;;;;;2.97;2.85;;;24.10;87.60;;;;;;5035056;28;20172;-80
2023/06/02 12:41:26;;;;;;;3.25;3.05;;;24.20;87.90;;;;;;5035008;28;20171;-80
2023/06/02 12:43:52;;;;;;;5.30;3.45;;;24.30;88.20;;;;;;5035032;28;20215;-80
2023/06/02 12:46:18;;;;;;;3.55;3.35;;;24.30;88.20;;;;;;5034778;28;20256;-81
2023/06/02 12:48:43;;;;;;;3.40;3.20;;;24.40;88.70;;;;;;5041891;28;20705;-81
2023/06/02 12:51:09;;;;;;;3.60;3.40;;;24.40;88.60;;;;;;5054499;28;20570;-81